Hovedside
METAR-TAF:

METAR-TAF

Lufthavner :

Halli lufthavn

Jämsä, Finland

breddegrad: 61-51N, lengdegrad: 024-48E, høyde over havet: 143 m

Gjeldene værobservasjon

Denne rapporten ble laget for 39 minutter siden, klokken 09:20 UTC
Vind 5 kt fra Øst, skiftende mellom Øst og Sørøst
Temperatur 2°C
Luftfuktighet 80%
Trykk 1016 hPa
Sikt 10 km eller mer
Overskyet i en høyde av 1200 ft

METAR: EFHA 200920Z AUTO 10005KT 080V140 9999 OVC012 02/M01 Q1016

Tid: 12:59 (09:59 UTC)


TAF: fraværende

Værobservasjoner og værvarsel for over 4000 flyplasser (METAR- og TAF-rapporter).

Tilgjengelige stasjoner er representert av de røde og gule prikkene på kartet.

Hold musepekeren over prikken for å se navnet på stasjonen.

Klikk så for å se værobservasjoner og -varsler.

For å forandre kartet kan du klikke på den grønne knappen med svart kryss for å zoome inn, på den grønne knappen med strek for å zoome ut, eller på de grønne pilene for å se tilstøtende kart.


METAR-TAF: